sensor_id;sensor_type;location;lat;lon;timestamp;temperature;humidity
74873;HTU21D;68776;44.762;37.698;2023-07-28T00:00:54;25.19;70.71
74873;HTU21D;68776;44.762;37.698;2023-07-28T00:01:55;25.15;70.43
74873;HTU21D;68776;44.762;37.698;2023-07-28T00:02:55;25.12;70.19
74873;HTU21D;68776;44.762;37.698;2023-07-28T00:03:56;25.08;69.99
74873;HTU21D;68776;44.762;37.698;2023-07-28T00:05:00;25.05;69.84
74873;HTU21D;68776;44.762;37.698;2023-07-28T00:06:01;25.05;69.61
74873;HTU21D;68776;44.762;37.698;2023-07-28T00:07:02;25.02;69.42
74873;HTU21D;68776;44.762;37.698;2023-07-28T00:08:03;25.01;69.23
74873;HTU21D;68776;44.762;37.698;2023-07-28T00:09:04;24.95;69.12
74873;HTU21D;68776;44.762;37.698;2023-07-28T00:10:05;24.93;68.99
74873;HTU21D;68776;44.762;37.698;2023-07-28T00:11:10;24.90;68.87
74873;HTU21D;68776;44.762;37.698;2023-07-28T00:12:12;24.86;68.73
74873;HTU21D;68776;44.762;37.698;2023-07-28T00:13:13;24.85;68.60
74873;HTU21D;68776;44.762;37.698;2023-07-28T00:14:14;24.83;68.48
74873;HTU21D;68776;44.762;37.698;2023-07-28T00:15:15;24.80;68.36
74873;HTU21D;68776;44.762;37.698;2023-07-28T00:16:16;24.80;68.24
74873;HTU21D;68776;44.762;37.698;2023-07-28T00:17:17;24.77;68.15
74873;HTU21D;68776;44.762;37.698;2023-07-28T00:18:18;24.75;68.07
74873;HTU21D;68776;44.762;37.698;2023-07-28T00:19:21;24.71;68.01
74873;HTU21D;68776;44.762;37.698;2023-07-28T00:20:22;24.70;67.95
74873;HTU21D;68776;44.762;37.698;2023-07-28T00:21:23;24.66;67.88
74873;HTU21D;68776;44.762;37.698;2023-07-28T00:22:24;24.64;67.81
74873;HTU21D;68776;44.762;37.698;2023-07-28T00:23:25;24.62;67.75
74873;HTU21D;68776;44.762;37.698;2023-07-28T00:24:26;24.60;67.72
74873;HTU21D;68776;44.762;37.698;2023-07-28T00:25:27;24.58;67.65
74873;HTU21D;68776;44.762;37.698;2023-07-28T00:26:28;24.56;67.59
74873;HTU21D;68776;44.762;37.698;2023-07-28T00:27:29;24.56;67.52
74873;HTU21D;68776;44.762;37.698;2023-07-28T00:28:30;24.56;67.47
74873;HTU21D;68776;44.762;37.698;2023-07-28T00:29:30;24.54;67.40
74873;HTU21D;68776;44.762;37.698;2023-07-28T00:30:31;24.53;67.35
74873;HTU21D;68776;44.762;37.698;2023-07-28T00:31:33;24.50;67.39
74873;HTU21D;68776;44.762;37.698;2023-07-28T00:32:34;24.49;67.54
74873;HTU21D;68776;44.762;37.698;2023-07-28T00:33:36;24.48;67.51
74873;HTU21D;68776;44.762;37.698;2023-07-28T00:34:38;24.50;67.39
74873;HTU21D;68776;44.762;37.698;2023-07-28T00:35:39;24.49;67.32
74873;HTU21D;68776;44.762;37.698;2023-07-28T00:36:40;24.47;67.27
74873;HTU21D;68776;44.762;37.698;2023-07-28T00:37:41;24.45;67.21
74873;HTU21D;68776;44.762;37.698;2023-07-28T00:38:42;24.44;67.18
74873;HTU21D;68776;44.762;37.698;2023-07-28T00:39:43;24.42;67.16
74873;HTU21D;68776;44.762;37.698;2023-07-28T00:40:44;24.40;67.13
74873;HTU21D;68776;44.762;37.698;2023-07-28T00:41:46;24.38;67.10
74873;HTU21D;68776;44.762;37.698;2023-07-28T00:42:47;24.35;67.05
74873;HTU21D;68776;44.762;37.698;2023-07-28T00:43:48;24.36;67.02
74873;HTU21D;68776;44.762;37.698;2023-07-28T00:44:49;24.34;66.98
74873;HTU21D;68776;44.762;37.698;2023-07-28T00:45:50;24.33;66.94
74873;HTU21D;68776;44.762;37.698;2023-07-28T00:46:51;24.31;66.90
74873;HTU21D;68776;44.762;37.698;2023-07-28T00:47:52;24.30;66.85
74873;HTU21D;68776;44.762;37.698;2023-07-28T00:48:53;24.30;66.81
74873;HTU21D;68776;44.762;37.698;2023-07-28T00:49:54;24.29;66.77
74873;HTU21D;68776;44.762;37.698;2023-07-28T00:50:55;24.28;66.73
74873;HTU21D;68776;44.762;37.698;2023-07-28T00:51:56;24.27;66.69
74873;HTU21D;68776;44.762;37.698;2023-07-28T00:52:57;24.25;66.67
74873;HTU21D;68776;44.762;37.698;2023-07-28T00:53:58;24.25;66.63
74873;HTU21D;68776;44.762;37.698;2023-07-28T00:55:00;24.25;66.60
74873;HTU21D;68776;44.762;37.698;2023-07-28T00:56:02;24.24;66.56
74873;HTU21D;68776;44.762;37.698;2023-07-28T00:57:04;24.23;66.59
74873;HTU21D;68776;44.762;37.698;2023-07-28T00:58:06;24.21;66.76
74873;HTU21D;68776;44.762;37.698;2023-07-28T00:59:07;24.21;67.67
74873;HTU21D;68776;44.762;37.698;2023-07-28T01:00:09;30.02;67.73
74873;HTU21D;68776;44.762;37.698;2023-07-28T01:01:10;24.25;68.61
74873;HTU21D;68776;44.762;37.698;2023-07-28T01:02:11;24.25;68.31
74873;HTU21D;68776;44.762;37.698;2023-07-28T01:03:13;24.26;68.04
74873;HTU21D;68776;44.762;37.698;2023-07-28T01:04:14;24.26;67.82
74873;HTU21D;68776;44.762;37.698;2023-07-28T01:05:15;24.27;67.65
74873;HTU21D;68776;44.762;37.698;2023-07-28T01:08:42;24.27;67.23
74873;HTU21D;68776;44.762;37.698;2023-07-28T01:09:50;24.27;67.14
74873;HTU21D;68776;44.762;37.698;2023-07-28T01:10:53;24.26;67.10
74873;HTU21D;68776;44.762;37.698;2023-07-28T01:11:55;24.24;67.05
74873;HTU21D;68776;44.762;37.698;2023-07-28T01:12:57;24.21;67.01
74873;HTU21D;68776;44.762;37.698;2023-07-28T01:13:58;24.19;66.96
74873;HTU21D;68776;44.762;37.698;2023-07-28T01:14:59;24.20;66.88
74873;HTU21D;68776;44.762;37.698;2023-07-28T01:16:00;24.20;66.84
74873;HTU21D;68776;44.762;37.698;2023-07-28T01:17:01;24.20;66.78
74873;HTU21D;68776;44.762;37.698;2023-07-28T01:18:02;24.19;66.70
74873;HTU21D;68776;44.762;37.698;2023-07-28T01:19:03;24.19;66.63
74873;HTU21D;68776;44.762;37.698;2023-07-28T01:20:04;24.19;66.56
74873;HTU21D;68776;44.762;37.698;2023-07-28T01:21:06;24.20;66.49
74873;HTU21D;68776;44.762;37.698;2023-07-28T01:24:42;24.21;66.32
74873;HTU21D;68776;44.762;37.698;2023-07-28T01:26:46;24.20;66.24
74873;HTU21D;68776;44.762;37.698;2023-07-28T01:27:47;24.21;66.20
74873;HTU21D;68776;44.762;37.698;2023-07-28T01:28:49;24.21;66.16
74873;HTU21D;68776;44.762;37.698;2023-07-28T01:29:50;24.20;66.13
74873;HTU21D;68776;44.762;37.698;2023-07-28T01:30:51;24.19;66.10
74873;HTU21D;68776;44.762;37.698;2023-07-28T01:31:52;24.20;66.07
74873;HTU21D;68776;44.762;37.698;2023-07-28T01:32:56;24.19;66.04
74873;HTU21D;68776;44.762;37.698;2023-07-28T01:33:58;24.18;66.02
74873;HTU21D;68776;44.762;37.698;2023-07-28T01:34:59;24.18;66.02
74873;HTU21D;68776;44.762;37.698;2023-07-28T01:36:00;24.17;66.00
74873;HTU21D;68776;44.762;37.698;2023-07-28T01:37:01;24.16;65.98
74873;HTU21D;68776;44.762;37.698;2023-07-28T01:38:02;24.16;65.95
74873;HTU21D;68776;44.762;37.698;2023-07-28T01:39:03;24.15;65.95
74873;HTU21D;68776;44.762;37.698;2023-07-28T01:40:04;24.16;65.93
74873;HTU21D;68776;44.762;37.698;2023-07-28T01:41:06;24.15;65.91
74873;HTU21D;68776;44.762;37.698;2023-07-28T01:42:07;24.14;65.88
74873;HTU21D;68776;44.762;37.698;2023-07-28T01:43:08;24.14;65.88
74873;HTU21D;68776;44.762;37.698;2023-07-28T01:44:09;24.13;65.87
74873;HTU21D;68776;44.762;37.698;2023-07-28T01:45:10;24.13;65.84
74873;HTU21D;68776;44.762;37.698;2023-07-28T01:46:11;24.13;65.82
74873;HTU21D;68776;44.762;37.698;2023-07-28T01:47:12;24.12;65.82
74873;HTU21D;68776;44.762;37.698;2023-07-28T01:48:13;24.10;65.81
74873;HTU21D;68776;44.762;37.698;2023-07-28T01:49:14;24.11;65.81
74873;HTU21D;68776;44.762;37.698;2023-07-28T01:50:15;24.09;65.80
74873;HTU21D;68776;44.762;37.698;2023-07-28T01:51:16;24.10;65.78
74873;HTU21D;68776;44.762;37.698;2023-07-28T01:52:17;24.09;65.75
74873;HTU21D;68776;44.762;37.698;2023-07-28T01:53:17;24.09;65.75
74873;HTU21D;68776;44.762;37.698;2023-07-28T01:54:18;24.06;65.75
74873;HTU21D;68776;44.762;37.698;2023-07-28T01:55:19;24.05;65.75
74873;HTU21D;68776;44.762;37.698;2023-07-28T01:56:20;24.04;65.75
74873;HTU21D;68776;44.762;37.698;2023-07-28T01:57:21;24.03;65.74
74873;HTU21D;68776;44.762;37.698;2023-07-28T01:58:22;24.02;65.74
74873;HTU21D;68776;44.762;37.698;2023-07-28T01:59:23;24.02;65.73
74873;HTU21D;68776;44.762;37.698;2023-07-28T02:00:24;24.01;65.72
74873;HTU21D;68776;44.762;37.698;2023-07-28T02:01:25;24.01;65.70
74873;HTU21D;68776;44.762;37.698;2023-07-28T02:02:26;24.01;65.71
74873;HTU21D;68776;44.762;37.698;2023-07-28T02:03:27;24.00;65.69
74873;HTU21D;68776;44.762;37.698;2023-07-28T02:04:28;23.98;65.69
74873;HTU21D;68776;44.762;37.698;2023-07-28T02:05:29;23.99;65.69
74873;HTU21D;68776;44.762;37.698;2023-07-28T02:06:30;23.97;65.69
74873;HTU21D;68776;44.762;37.698;2023-07-28T02:07:31;23.96;65.69
74873;HTU21D;68776;44.762;37.698;2023-07-28T02:08:32;23.95;65.69
74873;HTU21D;68776;44.762;37.698;2023-07-28T02:09:33;23.95;65.67
74873;HTU21D;68776;44.762;37.698;2023-07-28T02:10:34;23.95;65.67
74873;HTU21D;68776;44.762;37.698;2023-07-28T02:11:35;23.95;65.65
74873;HTU21D;68776;44.762;37.698;2023-07-28T02:12:36;23.92;65.62
74873;HTU21D;68776;44.762;37.698;2023-07-28T02:13:37;23.94;65.60
74873;HTU21D;68776;44.762;37.698;2023-07-28T02:14:38;23.92;65.60
74873;HTU21D;68776;44.762;37.698;2023-07-28T02:15:39;23.92;65.59
74873;HTU21D;68776;44.762;37.698;2023-07-28T02:16:40;23.91;65.60
74873;HTU21D;68776;44.762;37.698;2023-07-28T02:17:41;23.89;65.62
74873;HTU21D;68776;44.762;37.698;2023-07-28T02:18:41;23.88;65.64
74873;HTU21D;68776;44.762;37.698;2023-07-28T02:19:42;23.86;65.66
74873;HTU21D;68776;44.762;37.698;2023-07-28T02:20:43;23.86;65.65
74873;HTU21D;68776;44.762;37.698;2023-07-28T02:21:44;23.87;65.63
74873;HTU21D;68776;44.762;37.698;2023-07-28T02:22:45;23.86;65.62
74873;HTU21D;68776;44.762;37.698;2023-07-28T02:23:46;23.85;65.60
74873;HTU21D;68776;44.762;37.698;2023-07-28T02:24:47;23.84;65.60
74873;HTU21D;68776;44.762;37.698;2023-07-28T02:25:48;23.83;65.62
74873;HTU21D;68776;44.762;37.698;2023-07-28T02:26:49;23.82;65.62
74873;HTU21D;68776;44.762;37.698;2023-07-28T02:27:50;23.83;65.62
74873;HTU21D;68776;44.762;37.698;2023-07-28T02:28:51;23.80;65.60
74873;HTU21D;68776;44.762;37.698;2023-07-28T02:29:52;23.81;65.59
74873;HTU21D;68776;44.762;37.698;2023-07-28T02:30:53;23.81;65.59
74873;HTU21D;68776;44.762;37.698;2023-07-28T02:31:54;23.81;65.58
74873;HTU21D;68776;44.762;37.698;2023-07-28T02:32:55;23.82;65.55
74873;HTU21D;68776;44.762;37.698;2023-07-28T02:33:55;23.81;65.52
74873;HTU21D;68776;44.762;37.698;2023-07-28T02:34:56;23.83;65.49
74873;HTU21D;68776;44.762;37.698;2023-07-28T02:35:57;23.84;65.50
74873;HTU21D;68776;44.762;37.698;2023-07-28T02:36:58;23.83;65.65
74873;HTU21D;68776;44.762;37.698;2023-07-28T02:37:59;23.85;65.85
74873;HTU21D;68776;44.762;37.698;2023-07-28T02:39:00;23.87;66.04
74873;HTU21D;68776;44.762;37.698;2023-07-28T02:40:01;23.88;65.97
74873;HTU21D;68776;44.762;37.698;2023-07-28T02:41:05;23.90;66.05
74873;HTU21D;68776;44.762;37.698;2023-07-28T02:42:06;23.90;66.03
74873;HTU21D;68776;44.762;37.698;2023-07-28T02:43:07;23.90;65.95
74873;HTU21D;68776;44.762;37.698;2023-07-28T02:44:07;23.89;65.91
74873;HTU21D;68776;44.762;37.698;2023-07-28T02:45:08;23.90;65.86
74873;HTU21D;68776;44.762;37.698;2023-07-28T02:46:10;23.90;65.82
74873;HTU21D;68776;44.762;37.698;2023-07-28T02:47:11;23.91;65.75
74873;HTU21D;68776;44.762;37.698;2023-07-28T02:48:12;23.90;65.71
74873;HTU21D;68776;44.762;37.698;2023-07-28T02:49:12;23.92;65.68
74873;HTU21D;68776;44.762;37.698;2023-07-28T02:50:14;23.90;65.66
74873;HTU21D;68776;44.762;37.698;2023-07-28T02:51:15;23.89;65.66
74873;HTU21D;68776;44.762;37.698;2023-07-28T02:52:16;23.89;65.63
74873;HTU21D;68776;44.762;37.698;2023-07-28T02:53:17;23.89;65.60
74873;HTU21D;68776;44.762;37.698;2023-07-28T02:54:18;23.90;65.57
74873;HTU21D;68776;44.762;37.698;2023-07-28T02:55:19;23.89;65.54
74873;HTU21D;68776;44.762;37.698;2023-07-28T02:56:20;23.90;65.50
74873;HTU21D;68776;44.762;37.698;2023-07-28T02:57:21;23.91;65.46
74873;HTU21D;68776;44.762;37.698;2023-07-28T02:58:22;23.90;65.43
74873;HTU21D;68776;44.762;37.698;2023-07-28T02:59:23;23.91;65.41
74873;HTU21D;68776;44.762;37.698;2023-07-28T03:00:24;23.91;65.41
74873;HTU21D;68776;44.762;37.698;2023-07-28T03:01:25;23.92;65.40
74873;HTU21D;68776;44.762;37.698;2023-07-28T03:02:26;23.92;65.38
74873;HTU21D;68776;44.762;37.698;2023-07-28T03:03:29;23.92;65.37
74873;HTU21D;68776;44.762;37.698;2023-07-28T03:04:30;23.91;65.31
74873;HTU21D;68776;44.762;37.698;2023-07-28T03:05:54;23.94;65.27
74873;HTU21D;68776;44.762;37.698;2023-07-28T03:06:59;23.96;65.25
74873;HTU21D;68776;44.762;37.698;2023-07-28T03:08:00;23.96;65.21
74873;HTU21D;68776;44.762;37.698;2023-07-28T03:09:02;23.97;65.20
74873;HTU21D;68776;44.762;37.698;2023-07-28T03:10:17;23.97;65.15
74873;HTU21D;68776;44.762;37.698;2023-07-28T03:11:18;23.97;65.13
74873;HTU21D;68776;44.762;37.698;2023-07-28T03:12:19;23.99;65.11
74873;HTU21D;68776;44.762;37.698;2023-07-28T03:13:21;23.99;65.08
74873;HTU21D;68776;44.762;37.698;2023-07-28T03:14:22;24.01;65.11
74873;HTU21D;68776;44.762;37.698;2023-07-28T03:15:23;24.00;65.33
74873;HTU21D;68776;44.762;37.698;2023-07-28T03:16:24;24.01;65.56
74873;HTU21D;68776;44.762;37.698;2023-07-28T03:17:25;24.02;65.54
74873;HTU21D;68776;44.762;37.698;2023-07-28T03:18:26;24.03;65.45
74873;HTU21D;68776;44.762;37.698;2023-07-28T03:19:27;24.08;65.33
74873;HTU21D;68776;44.762;37.698;2023-07-28T03:20:29;24.11;65.37
74873;HTU21D;68776;44.762;37.698;2023-07-28T03:21:30;24.14;65.52
74873;HTU21D;68776;44.762;37.698;2023-07-28T03:22:34;24.16;65.70
74873;HTU21D;68776;44.762;37.698;2023-07-28T03:23:35;24.18;65.63
74873;HTU21D;68776;44.762;37.698;2023-07-28T03:24:36;24.23;65.51
74873;HTU21D;68776;44.762;37.698;2023-07-28T03:25:37;24.25;65.37
74873;HTU21D;68776;44.762;37.698;2023-07-28T03:26:38;24.27;65.25
74873;HTU21D;68776;44.762;37.698;2023-07-28T03:27:39;24.29;65.17
74873;HTU21D;68776;44.762;37.698;2023-07-28T03:28:40;24.31;65.22
74873;HTU21D;68776;44.762;37.698;2023-07-28T03:29:42;24.32;65.20
74873;HTU21D;68776;44.762;37.698;2023-07-28T03:30:43;24.35;65.13
74873;HTU21D;68776;44.762;37.698;2023-07-28T03:31:44;24.36;65.06
74873;HTU21D;68776;44.762;37.698;2023-07-28T03:32:45;24.38;64.99
74873;HTU21D;68776;44.762;37.698;2023-07-28T03:33:46;24.41;64.93
74873;HTU21D;68776;44.762;37.698;2023-07-28T03:34:47;24.41;64.89
74873;HTU21D;68776;44.762;37.698;2023-07-28T03:35:52;24.43;64.85
74873;HTU21D;68776;44.762;37.698;2023-07-28T03:36:53;24.44;64.82
74873;HTU21D;68776;44.762;37.698;2023-07-28T03:37:54;24.43;64.79
74873;HTU21D;68776;44.762;37.698;2023-07-28T03:38:56;24.45;64.76
74873;HTU21D;68776;44.762;37.698;2023-07-28T03:39:56;24.44;64.76
74873;HTU21D;68776;44.762;37.698;2023-07-28T03:41:03;24.45;64.76
74873;HTU21D;68776;44.762;37.698;2023-07-28T03:42:04;24.43;64.77
74873;HTU21D;68776;44.762;37.698;2023-07-28T03:43:05;24.43;64.76
74873;HTU21D;68776;44.762;37.698;2023-07-28T03:44:06;24.45;64.73
74873;HTU21D;68776;44.762;37.698;2023-07-28T03:45:07;24.44;64.70
74873;HTU21D;68776;44.762;37.698;2023-07-28T03:46:08;24.45;64.68
74873;HTU21D;68776;44.762;37.698;2023-07-28T03:47:09;24.45;64.66
74873;HTU21D;68776;44.762;37.698;2023-07-28T03:48:11;24.45;64.66
74873;HTU21D;68776;44.762;37.698;2023-07-28T03:49:12;24.46;64.65
74873;HTU21D;68776;44.762;37.698;2023-07-28T03:50:12;24.47;64.62
74873;HTU21D;68776;44.762;37.698;2023-07-28T03:51:13;24.47;64.59
74873;HTU21D;68776;44.762;37.698;2023-07-28T03:52:14;24.49;64.56
74873;HTU21D;68776;44.762;37.698;2023-07-28T03:53:15;24.48;64.53
74873;HTU21D;68776;44.762;37.698;2023-07-28T03:54:16;24.51;64.50
74873;HTU21D;68776;44.762;37.698;2023-07-28T03:55:17;24.51;64.45
74873;HTU21D;68776;44.762;37.698;2023-07-28T03:56:17;24.55;64.40
74873;HTU21D;68776;44.762;37.698;2023-07-28T03:57:18;24.55;64.37
74873;HTU21D;68776;44.762;37.698;2023-07-28T03:58:19;24.57;64.34
74873;HTU21D;68776;44.762;37.698;2023-07-28T03:59:20;24.58;64.30
74873;HTU21D;68776;44.762;37.698;2023-07-28T04:00:21;24.61;64.26
74873;HTU21D;68776;44.762;37.698;2023-07-28T04:01:22;24.61;64.23
74873;HTU21D;68776;44.762;37.698;2023-07-28T04:02:23;24.63;64.21
74873;HTU21D;68776;44.762;37.698;2023-07-28T04:03:24;24.65;64.16
74873;HTU21D;68776;44.762;37.698;2023-07-28T04:04:25;24.64;64.14
74873;HTU21D;68776;44.762;37.698;2023-07-28T04:05:26;24.64;64.18
74873;HTU21D;68776;44.762;37.698;2023-07-28T04:06:42;24.63;64.22
74873;HTU21D;68776;44.762;37.698;2023-07-28T04:07:43;24.61;64.29
74873;HTU21D;68776;44.762;37.698;2023-07-28T04:08:44;24.59;64.32
74873;HTU21D;68776;44.762;37.698;2023-07-28T04:09:45;24.57;64.38
74873;HTU21D;68776;44.762;37.698;2023-07-28T04:10:46;24.55;64.42
74873;HTU21D;68776;44.762;37.698;2023-07-28T04:11:47;24.56;64.42
74873;HTU21D;68776;44.762;37.698;2023-07-28T04:12:47;24.54;64.45
74873;HTU21D;68776;44.762;37.698;2023-07-28T04:13:48;24.51;64.50
74873;HTU21D;68776;44.762;37.698;2023-07-28T04:14:49;24.49;64.53
74873;HTU21D;68776;44.762;37.698;2023-07-28T04:15:50;24.46;64.58
74873;HTU21D;68776;44.762;37.698;2023-07-28T04:16:51;24.44;64.63
74873;HTU21D;68776;44.762;37.698;2023-07-28T04:17:52;24.40;64.69
74873;HTU21D;68776;44.762;37.698;2023-07-28T04:18:52;24.38;64.72
74873;HTU21D;68776;44.762;37.698;2023-07-28T04:19:53;24.36;64.75
74873;HTU21D;68776;44.762;37.698;2023-07-28T04:20:54;24.33;64.79
74873;HTU21D;68776;44.762;37.698;2023-07-28T04:21:59;24.32;64.79
74873;HTU21D;68776;44.762;37.698;2023-07-28T04:23:01;24.29;64.82
74873;HTU21D;68776;44.762;37.698;2023-07-28T04:24:07;24.27;64.85
74873;HTU21D;68776;44.762;37.698;2023-07-28T04:25:11;24.25;64.85
74873;HTU21D;68776;44.762;37.698;2023-07-28T04:26:17;24.25;64.80
74873;HTU21D;68776;44.762;37.698;2023-07-28T04:27:27;24.24;64.79
74873;HTU21D;68776;44.762;37.698;2023-07-28T04:28:32;24.21;64.81
74873;HTU21D;68776;44.762;37.698;2023-07-28T04:29:35;24.20;64.81
74873;HTU21D;68776;44.762;37.698;2023-07-28T04:30:39;24.20;64.79
74873;HTU21D;68776;44.762;37.698;2023-07-28T04:31:40;24.19;64.73
74873;HTU21D;68776;44.762;37.698;2023-07-28T04:32:45;24.20;64.67
74873;HTU21D;68776;44.762;37.698;2023-07-28T04:33:51;24.19;64.69
74873;HTU21D;68776;44.762;37.698;2023-07-28T04:34:52;24.17;64.72
74873;HTU21D;68776;44.762;37.698;2023-07-28T04:36:12;24.17;64.67
74873;HTU21D;68776;44.762;37.698;2023-07-28T04:37:13;24.18;64.66
74873;HTU21D;68776;44.762;37.698;2023-07-28T04:38:22;24.16;64.65
74873;HTU21D;68776;44.762;37.698;2023-07-28T04:39:29;24.17;64.59
74873;HTU21D;68776;44.762;37.698;2023-07-28T04:40:30;24.20;64.51
74873;HTU21D;68776;44.762;37.698;2023-07-28T04:41:30;24.25;64.40
74873;HTU21D;68776;44.762;37.698;2023-07-28T04:42:32;24.28;64.29
74873;HTU21D;68776;44.762;37.698;2023-07-28T04:43:33;24.32;64.18
74873;HTU21D;68776;44.762;37.698;2023-07-28T04:44:34;24.38;64.08
74873;HTU21D;68776;44.762;37.698;2023-07-28T04:45:37;24.41;63.98
74873;HTU21D;68776;44.762;37.698;2023-07-28T04:46:45;24.45;63.89
74873;HTU21D;68776;44.762;37.698;2023-07-28T04:47:49;24.48;63.80
74873;HTU21D;68776;44.762;37.698;2023-07-28T04:48:50;24.53;63.73
74873;HTU21D;68776;44.762;37.698;2023-07-28T04:50:13;24.57;63.64
74873;HTU21D;68776;44.762;37.698;2023-07-28T04:51:34;24.59;63.56
74873;HTU21D;68776;44.762;37.698;2023-07-28T04:53:10;24.65;63.46
74873;HTU21D;68776;44.762;37.698;2023-07-28T04:54:43;24.72;63.34
74873;HTU21D;68776;44.762;37.698;2023-07-28T04:55:44;24.75;63.27
74873;HTU21D;68776;44.762;37.698;2023-07-28T04:56:45;24.80;63.19
74873;HTU21D;68776;44.762;37.698;2023-07-28T04:57:46;24.86;63.10
74873;HTU21D;68776;44.762;37.698;2023-07-28T04:58:47;24.91;63.00
74873;HTU21D;68776;44.762;37.698;2023-07-28T04:59:48;24.94;62.95
74873;HTU21D;68776;44.762;37.698;2023-07-28T05:00:49;24.98;62.89
74873;HTU21D;68776;44.762;37.698;2023-07-28T05:01:50;25.00;62.88
74873;HTU21D;68776;44.762;37.698;2023-07-28T05:02:51;25.03;62.82
74873;HTU21D;68776;44.762;37.698;2023-07-28T05:03:52;25.03;62.82
74873;HTU21D;68776;44.762;37.698;2023-07-28T05:04:57;25.05;62.79
74873;HTU21D;68776;44.762;37.698;2023-07-28T05:05:58;25.07;62.83
74873;HTU21D;68776;44.762;37.698;2023-07-28T05:06:59;25.07;63.39
74873;HTU21D;68776;44.762;37.698;2023-07-28T05:08:00;25.09;63.92
74873;HTU21D;68776;44.762;37.698;2023-07-28T05:09:01;25.13;63.94
74873;HTU21D;68776;44.762;37.698;2023-07-28T05:10:10;25.16;63.83
74873;HTU21D;68776;44.762;37.698;2023-07-28T05:11:11;25.18;63.78
74873;HTU21D;68776;44.762;37.698;2023-07-28T05:12:12;25.20;63.79
74873;HTU21D;68776;44.762;37.698;2023-07-28T05:13:18;25.22;63.82
74873;HTU21D;68776;44.762;37.698;2023-07-28T05:14:27;25.24;64.09
74873;HTU21D;68776;44.762;37.698;2023-07-28T05:15:28;25.28;64.24
74873;HTU21D;68776;44.762;37.698;2023-07-28T05:16:29;25.32;64.30
74873;HTU21D;68776;44.762;37.698;2023-07-28T05:17:53;25.37;64.30
74873;HTU21D;68776;44.762;37.698;2023-07-28T05:19:17;25.42;64.33
74873;HTU21D;68776;44.762;37.698;2023-07-28T05:20:36;25.45;64.32
74873;HTU21D;68776;44.762;37.698;2023-07-28T05:21:45;25.50;64.32
74873;HTU21D;68776;44.762;37.698;2023-07-28T05:22:48;25.58;64.23
74873;HTU21D;68776;44.762;37.698;2023-07-28T05:23:50;25.66;64.11
74873;HTU21D;68776;44.762;37.698;2023-07-28T05:24:51;25.71;64.01
74873;HTU21D;68776;44.762;37.698;2023-07-28T05:25:52;25.74;63.93
74873;HTU21D;68776;44.762;37.698;2023-07-28T05:26:53;25.78;63.86
74873;HTU21D;68776;44.762;37.698;2023-07-28T05:27:54;25.84;63.79
74873;HTU21D;68776;44.762;37.698;2023-07-28T05:28:55;25.92;63.68
74873;HTU21D;68776;44.762;37.698;2023-07-28T05:29:56;25.96;63.60
74873;HTU21D;68776;44.762;37.698;2023-07-28T05:31:04;26.03;0.00
74873;HTU21D;68776;44.762;37.698;2023-07-28T05:32:05;26.07;63.34
74873;HTU21D;68776;44.762;37.698;2023-07-28T05:33:26;26.10;63.14
74873;HTU21D;68776;44.762;37.698;2023-07-28T05:34:29;26.12;62.95
74873;HTU21D;68776;44.762;37.698;2023-07-28T05:35:30;26.15;62.79
74873;HTU21D;68776;44.762;37.698;2023-07-28T05:36:31;26.18;62.65
74873;HTU21D;68776;44.762;37.698;2023-07-28T05:37:35;26.23;62.53
74873;HTU21D;68776;44.762;37.698;2023-07-28T05:38:36;26.22;62.49
74873;HTU21D;68776;44.762;37.698;2023-07-28T05:39:37;26.22;62.51
74873;HTU21D;68776;44.762;37.698;2023-07-28T05:40:38;26.20;62.50
74873;HTU21D;68776;44.762;37.698;2023-07-28T05:41:40;26.18;62.47
74873;HTU21D;68776;44.762;37.698;2023-07-28T05:42:44;26.15;62.50
74873;HTU21D;68776;44.762;37.698;2023-07-28T05:43:45;26.15;62.47
74873;HTU21D;68776;44.762;37.698;2023-07-28T05:44:46;26.15;62.47
74873;HTU21D;68776;44.762;37.698;2023-07-28T05:45:47;26.16;62.47
74873;HTU21D;68776;44.762;37.698;2023-07-28T05:46:48;26.15;62.43
74873;HTU21D;68776;44.762;37.698;2023-07-28T05:47:51;26.19;62.38
74873;HTU21D;68776;44.762;37.698;2023-07-28T05:48:54;26.22;62.34
74873;HTU21D;68776;44.762;37.698;2023-07-28T05:49:56;26.27;62.31
74873;HTU21D;68776;44.762;37.698;2023-07-28T05:50:57;26.30;62.25
74873;HTU21D;68776;44.762;37.698;2023-07-28T05:51:58;26.33;62.21
74873;HTU21D;68776;44.762;37.698;2023-07-28T05:52:59;26.37;62.18
74873;HTU21D;68776;44.762;37.698;2023-07-28T05:54:00;26.38;62.21
74873;HTU21D;68776;44.762;37.698;2023-07-28T05:55:02;26.43;62.24
74873;HTU21D;68776;44.762;37.698;2023-07-28T05:56:03;26.45;62.27
74873;HTU21D;68776;44.762;37.698;2023-07-28T05:57:06;26.48;62.32
74873;HTU21D;68776;44.762;37.698;2023-07-28T05:58:07;26.49;62.41
74873;HTU21D;68776;44.762;37.698;2023-07-28T05:59:11;26.51;62.42
74873;HTU21D;68776;44.762;37.698;2023-07-28T06:00:12;26.52;62.41
74873;HTU21D;68776;44.762;37.698;2023-07-28T06:01:16;26.50;62.44
74873;HTU21D;68776;44.762;37.698;2023-07-28T06:02:37;26.46;62.48
74873;HTU21D;68776;44.762;37.698;2023-07-28T06:03:38;26.42;62.57
74873;HTU21D;68776;44.762;37.698;2023-07-28T06:04:45;26.40;62.66
74873;HTU21D;68776;44.762;37.698;2023-07-28T06:05:47;26.42;62.66
74873;HTU21D;68776;44.762;37.698;2023-07-28T06:06:48;26.43;62.63
74873;HTU21D;68776;44.762;37.698;2023-07-28T06:07:50;26.42;62.65
74873;HTU21D;68776;44.762;37.698;2023-07-28T06:08:51;26.39;62.66
74873;HTU21D;68776;44.762;37.698;2023-07-28T06:09:53;26.39;62.68
74873;HTU21D;68776;44.762;37.698;2023-07-28T06:10:54;26.41;62.64
74873;HTU21D;68776;44.762;37.698;2023-07-28T06:11:55;26.37;62.57
74873;HTU21D;68776;44.762;37.698;2023-07-28T06:13:00;26.33;62.68
74873;HTU21D;68776;44.762;37.698;2023-07-28T06:14:03;26.27;62.76
74873;HTU21D;68776;44.762;37.698;2023-07-28T06:15:08;26.23;62.94
74873;HTU21D;68776;44.762;37.698;2023-07-28T06:16:15;26.19;63.12
74873;HTU21D;68776;44.762;37.698;2023-07-28T06:17:16;26.12;63.42
74873;HTU21D;68776;44.762;37.698;2023-07-28T06:18:17;26.04;63.80
74873;HTU21D;68776;44.762;37.698;2023-07-28T06:19:22;25.93;64.24
74873;HTU21D;68776;44.762;37.698;2023-07-28T06:20:25;25.88;64.63
74873;HTU21D;68776;44.762;37.698;2023-07-28T06:21:27;25.84;64.97
74873;HTU21D;68776;44.762;37.698;2023-07-28T06:22:27;25.77;65.29
74873;HTU21D;68776;44.762;37.698;2023-07-28T06:23:28;25.73;65.59
74873;HTU21D;68776;44.762;37.698;2023-07-28T06:24:31;25.67;65.86
74873;HTU21D;68776;44.762;37.698;2023-07-28T06:25:34;25.63;66.05
74873;HTU21D;68776;44.762;37.698;2023-07-28T06:26:41;25.53;66.25
74873;HTU21D;68776;44.762;37.698;2023-07-28T06:27:42;25.46;66.40
74873;HTU21D;68776;44.762;37.698;2023-07-28T06:28:44;25.46;66.49